createdAt,value
2022-09-06T00:02:18.609Z,98013.00
2022-09-06T00:06:20.413Z,98011.00
2022-09-06T00:10:21.530Z,97987.00
2022-09-06T00:14:22.603Z,98014.00
2022-09-06T00:18:23.840Z,98011.00
2022-09-06T00:22:24.969Z,98013.00
2022-09-06T00:26:26.068Z,98007.00
2022-09-06T00:30:29.061Z,98011.00
2022-09-06T00:34:30.103Z,98024.00
2022-09-06T00:38:31.708Z,98011.00
2022-09-06T00:42:33.220Z,98008.00
2022-09-06T00:46:37.513Z,97996.00
2022-09-06T00:50:38.483Z,97979.00
2022-09-06T00:54:40.729Z,97970.00
2022-09-06T00:58:42.474Z,97988.00
2022-09-06T01:02:43.718Z,97989.00
2022-09-06T01:07:06.605Z,97989.00
2022-09-06T01:11:45.037Z,98006.00
2022-09-06T01:15:58.484Z,98010.00
2022-09-06T01:20:30.488Z,98002.00
2022-09-06T01:24:41.258Z,98010.00
2022-09-06T01:28:44.465Z,97986.00
2022-09-06T01:32:52.536Z,97999.00
2022-09-06T01:37:11.136Z,97991.00
2022-09-06T01:41:06.786Z,97997.00
2022-09-06T01:45:11.736Z,98000.00
2022-09-06T01:49:25.680Z,97988.00
2022-09-06T01:57:56.596Z,97991.00
2022-09-06T02:02:22.707Z,97991.00
2022-09-06T02:06:27.515Z,98014.00
2022-09-06T02:10:32.614Z,98061.00
2022-09-06T02:14:37.562Z,98081.00
2022-09-06T02:18:45.095Z,98094.00
2022-09-06T02:22:47.553Z,98095.00
2022-09-06T02:26:51.064Z,98085.00
2022-09-06T02:30:56.162Z,98082.00
2022-09-06T02:34:57.975Z,98075.00
2022-09-06T02:39:00.939Z,98070.00
2022-09-06T02:43:01.846Z,98058.00
2022-09-06T02:47:06.121Z,98060.00
2022-09-06T02:51:08.761Z,98062.00
2022-09-06T02:55:11.093Z,98038.00
2022-09-06T02:59:12.350Z,98042.00
2022-09-06T03:03:13.806Z,98032.00
2022-09-06T03:07:14.837Z,98038.00
2022-09-06T03:11:16.178Z,98036.00
2022-09-06T03:15:17.524Z,98040.00
2022-09-06T03:19:19.733Z,98018.00
2022-09-06T03:23:23.316Z,98011.00
2022-09-06T03:27:24.481Z,98004.00
2022-09-06T03:31:25.463Z,97984.00
2022-09-06T03:35:26.614Z,97965.00
2022-09-06T03:39:27.773Z,97936.00
2022-09-06T03:43:29.788Z,97941.00
2022-09-06T03:47:31.075Z,97953.00
2022-09-06T03:51:32.098Z,97961.00
2022-09-06T03:55:33.039Z,97972.00
2022-09-06T03:59:34.017Z,97958.00
2022-09-06T04:03:36.279Z,97930.00
2022-09-06T04:07:37.310Z,97929.00
2022-09-06T04:11:38.484Z,97933.00
2022-09-06T04:15:39.832Z,97908.00
2022-09-06T04:19:40.885Z,97934.00
2022-09-06T04:23:42.078Z,97919.00
2022-09-06T04:27:43.257Z,97910.00
2022-09-06T04:31:45.639Z,97902.00
2022-09-06T04:35:49.998Z,97911.00
2022-09-06T04:39:51.046Z,97919.00
2022-09-06T04:43:52.014Z,97942.00
2022-09-06T04:47:52.930Z,97958.00
2022-09-06T04:51:53.980Z,97950.00
2022-09-06T04:55:57.541Z,97944.00
2022-09-06T04:59:58.548Z,97954.00
2022-09-06T05:03:59.574Z,97957.00
2022-09-06T05:12:08.056Z,97948.00
2022-09-06T05:16:09.690Z,97973.00
2022-09-06T05:20:11.756Z,97967.00
2022-09-06T05:24:13.124Z,97968.00
2022-09-06T05:28:15.242Z,97971.00
2022-09-06T05:32:16.364Z,97974.00
2022-09-06T05:36:17.376Z,97975.00
2022-09-06T05:40:18.414Z,97974.00
2022-09-06T05:44:19.556Z,97987.00
2022-09-06T05:48:20.482Z,97992.00
2022-09-06T05:52:21.398Z,98001.00
2022-09-06T05:56:22.530Z,97989.00
2022-09-06T06:00:24.766Z,97986.00
2022-09-06T06:04:25.722Z,97991.00
2022-09-06T06:08:27.039Z,97998.00
2022-09-06T06:12:28.161Z,98002.00
2022-09-06T06:16:29.888Z,98000.00
2022-09-06T06:20:31.010Z,98004.00
2022-09-06T06:24:32.044Z,98008.00
2022-09-06T06:28:35.125Z,98008.00
2022-09-06T06:32:36.110Z,98012.00
2022-09-06T06:36:37.757Z,98007.00
2022-09-06T06:40:38.821Z,98012.00
2022-09-06T06:44:39.831Z,98012.00
2022-09-06T06:48:43.006Z,98018.00
2022-09-06T06:52:44.017Z,98018.00
2022-09-06T06:56:45.231Z,98027.00
2022-09-06T07:00:46.489Z,98030.00
2022-09-06T07:04:47.531Z,98015.00
2022-09-06T07:08:48.976Z,98032.00
2022-09-06T07:12:50.531Z,98021.00
2022-09-06T07:16:53.447Z,98030.00
2022-09-06T07:24:59.195Z,98035.00
2022-09-06T07:29:01.972Z,98032.00
2022-09-06T07:33:06.931Z,98036.00
2022-09-06T07:37:08.026Z,98039.00
2022-09-06T07:41:11.030Z,98048.00
2022-09-06T07:45:12.148Z,98044.00
2022-09-06T07:49:13.275Z,98056.00
2022-09-06T07:53:29.067Z,98051.00
2022-09-06T07:57:17.062Z,98056.00
2022-09-06T08:01:30.590Z,98052.00
2022-09-06T08:09:35.115Z,98052.00
2022-09-06T08:13:37.038Z,98051.00
2022-09-06T08:17:38.050Z,98045.00
2022-09-06T08:21:38.962Z,98047.00
2022-09-06T08:25:40.012Z,98045.00
2022-09-06T08:29:41.064Z,98042.00
2022-09-06T08:33:43.427Z,98041.00
2022-09-06T08:37:44.435Z,98039.00
2022-09-06T08:41:52.509Z,98046.00
2022-09-06T08:45:56.502Z,98039.00
2022-09-06T08:50:03.508Z,98046.00
2022-09-06T08:54:26.850Z,98035.00
2022-09-06T08:58:49.879Z,98038.00
2022-09-06T09:03:00.769Z,98034.00
2022-09-06T09:07:17.896Z,98031.00
2022-09-06T09:11:24.877Z,98027.00
2022-09-06T09:15:27.217Z,98013.00
2022-09-06T09:19:30.058Z,98017.00
2022-09-06T09:23:31.639Z,98013.00
2022-09-06T09:27:33.288Z,98005.00
2022-09-06T09:31:43.913Z,98000.00
2022-09-06T09:35:45.067Z,97988.00
2022-09-06T09:39:47.862Z,98001.00
2022-09-06T09:44:04.384Z,97991.00
2022-09-06T09:48:26.940Z,97986.00
2022-09-06T09:52:31.142Z,97990.00
2022-09-06T09:56:38.994Z,97983.00
2022-09-06T10:00:42.243Z,97977.00
2022-09-06T10:04:47.074Z,97984.00
2022-09-06T10:08:48.059Z,97978.00
2022-09-06T10:13:09.721Z,97986.00
2022-09-06T10:17:30.163Z,97977.00
2022-09-06T10:21:31.257Z,97971.00
2022-09-06T10:25:36.890Z,97969.00
2022-09-06T10:30:07.766Z,97967.00
2022-09-06T10:34:29.441Z,97974.00
2022-09-06T10:38:51.009Z,97960.00
2022-09-06T10:42:54.041Z,97964.00
2022-09-06T10:47:11.112Z,97960.00
2022-09-06T10:51:40.005Z,97959.00
2022-09-06T10:55:46.269Z,97967.00
2022-09-06T10:59:53.078Z,97955.00
2022-09-06T11:04:01.917Z,97944.00
2022-09-06T11:12:34.361Z,97940.00
2022-09-06T11:16:44.989Z,97946.00
2022-09-06T11:21:06.329Z,97945.00
2022-09-06T11:25:27.871Z,97942.00
2022-09-06T11:29:31.080Z,97925.00
2022-09-06T11:33:38.175Z,97942.00
2022-09-06T11:37:43.173Z,97935.00
2022-09-06T11:41:44.304Z,97927.00
2022-09-06T11:45:51.043Z,97918.00
2022-09-06T11:49:53.430Z,97924.00
2022-09-06T11:54:04.116Z,97940.00
2022-09-06T11:58:24.324Z,97921.00
2022-09-06T12:02:38.140Z,97917.00
2022-09-06T12:06:43.029Z,97932.00
2022-09-06T12:10:56.172Z,97913.00
2022-09-06T12:14:57.304Z,97910.00
2022-09-06T12:18:59.779Z,97914.00
2022-09-06T12:23:01.101Z,97913.00
2022-09-06T12:27:26.570Z,97917.00
2022-09-06T12:31:34.616Z,97918.00
2022-09-06T12:39:39.022Z,97911.00
2022-09-06T12:43:40.631Z,97910.00
2022-09-06T12:47:41.610Z,97900.00
2022-09-06T12:51:43.225Z,97900.00
2022-09-06T12:55:44.216Z,97897.00
2022-09-06T12:59:54.818Z,97890.00
2022-09-06T13:04:01.739Z,97886.00
2022-09-06T13:08:03.646Z,97883.00
2022-09-06T13:12:08.738Z,97880.00
2022-09-06T13:16:10.043Z,97887.00
2022-09-06T13:20:26.059Z,97870.00
2022-09-06T13:24:33.927Z,97870.00
2022-09-06T13:28:35.443Z,97868.00
2022-09-06T13:32:43.769Z,97873.00
2022-09-06T13:36:48.594Z,97876.00
2022-09-06T13:41:11.636Z,97879.00
2022-09-06T13:44:57.686Z,97872.00
2022-09-06T13:48:57.867Z,97864.00
2022-09-06T13:52:59.254Z,97862.00
2022-09-06T13:57:02.470Z,97863.00
2022-09-06T14:01:07.060Z,97856.00
2022-09-06T14:05:09.002Z,97850.00
2022-09-06T14:09:10.291Z,97847.00
2022-09-06T14:13:11.768Z,97844.00
2022-09-06T14:17:12.828Z,97849.00
2022-09-06T14:21:14.072Z,97835.00
2022-09-06T14:25:15.113Z,97835.00
2022-09-06T14:29:16.118Z,97845.00
2022-09-06T14:33:18.368Z,97847.00
2022-09-06T14:37:20.991Z,97847.00
2022-09-06T14:41:22.028Z,97838.00
2022-09-06T14:45:23.105Z,97828.00
2022-09-06T14:49:24.552Z,97826.00
2022-09-06T14:53:39.808Z,97821.00
2022-09-06T14:57:29.516Z,97810.00
2022-09-06T15:01:37.791Z,97804.00
2022-09-06T15:05:35.571Z,97798.00
2022-09-06T15:09:36.998Z,97805.00
2022-09-06T15:13:40.116Z,97819.00
2022-09-06T15:17:41.547Z,97813.00
2022-09-06T15:21:42.995Z,97809.00
2022-09-06T15:25:49.198Z,97791.00
2022-09-06T15:29:50.307Z,97796.00
2022-09-06T15:33:52.356Z,97816.00
2022-09-06T15:37:53.785Z,97822.00
2022-09-06T15:41:56.571Z,97836.00
2022-09-06T15:45:57.709Z,97827.00
2022-09-06T15:49:58.772Z,97821.00
2022-09-06T15:53:59.927Z,97822.00
2022-09-06T15:58:00.978Z,97826.00
2022-09-06T16:02:02.606Z,97826.00
2022-09-06T16:06:27.194Z,97844.00
2022-09-06T16:10:14.105Z,97844.00
2022-09-06T16:14:15.947Z,97842.00
2022-09-06T16:18:18.871Z,97840.00
2022-09-06T16:22:19.916Z,97811.00
2022-09-06T16:26:22.674Z,97821.00
2022-09-06T16:30:23.893Z,97837.00
2022-09-06T16:34:26.367Z,97853.00
2022-09-06T16:38:30.695Z,97854.00
2022-09-06T16:42:31.749Z,97852.00
2022-09-06T16:46:32.843Z,97855.00
2022-09-06T16:50:34.014Z,97847.00
2022-09-06T16:54:36.562Z,97854.00
2022-09-06T16:58:41.401Z,97851.00
2022-09-06T17:02:47.016Z,97843.00
2022-09-06T17:06:46.315Z,97858.00
2022-09-06T17:10:47.911Z,97874.00
2022-09-06T17:14:49.050Z,97874.00
2022-09-06T17:18:52.978Z,97875.00
2022-09-06T17:22:54.024Z,97876.00
2022-09-06T17:26:55.191Z,97869.00
2022-09-06T17:30:59.763Z,97869.00
2022-09-06T17:35:01.457Z,97861.00
2022-09-06T17:39:13.206Z,97846.00
2022-09-06T17:43:14.576Z,97834.00
2022-09-06T17:47:15.999Z,97825.00
2022-09-06T17:51:17.854Z,97820.00
2022-09-06T17:55:19.215Z,97811.00
2022-09-06T17:59:20.513Z,97803.00
2022-09-06T18:03:21.540Z,97820.00
2022-09-06T18:07:22.640Z,97815.00
2022-09-06T18:11:26.863Z,97800.00
2022-09-06T18:15:28.385Z,97799.00
2022-09-06T18:19:29.863Z,97791.00
2022-09-06T18:23:31.624Z,97791.00
2022-09-06T18:27:33.172Z,97799.00
2022-09-06T18:31:34.274Z,97794.00
2022-09-06T18:35:39.205Z,97792.00
2022-09-06T18:39:41.723Z,97797.00
2022-09-06T18:43:43.263Z,97790.00
2022-09-06T18:47:44.345Z,97787.00
2022-09-06T18:51:45.911Z,97787.00
2022-09-06T18:55:51.547Z,97787.00
2022-09-06T18:59:52.580Z,97783.00
2022-09-06T19:03:55.988Z,97787.00
2022-09-06T19:07:57.200Z,97716.00
2022-09-06T19:11:58.597Z,97783.00
2022-09-06T19:16:00.809Z,97775.00
2022-09-06T19:20:03.607Z,97756.00
2022-09-06T19:24:06.935Z,97756.00
2022-09-06T19:28:08.171Z,97768.00
2022-09-06T19:32:09.453Z,97744.00
2022-09-06T19:36:12.391Z,97738.00
2022-09-06T19:40:13.880Z,97733.00
2022-09-06T19:44:16.438Z,97739.00
2022-09-06T19:48:17.606Z,97731.00
2022-09-06T19:52:18.920Z,97714.00
2022-09-06T19:56:25.865Z,97703.00
2022-09-06T20:00:28.401Z,97696.00
2022-09-06T20:04:31.769Z,97701.00
2022-09-06T20:08:34.396Z,97702.00
2022-09-06T20:12:36.223Z,97703.00
2022-09-06T20:16:41.436Z,97705.00
2022-09-06T20:20:40.698Z,97704.00
2022-09-06T20:24:41.961Z,97704.00
2022-09-06T20:28:43.628Z,97687.00
2022-09-06T20:32:44.836Z,97706.00
2022-09-06T20:36:45.848Z,97696.00
2022-09-06T20:40:46.795Z,97686.00
2022-09-06T20:44:48.267Z,97694.00
2022-09-06T20:48:50.043Z,97688.00
2022-09-06T20:52:52.564Z,97697.00
2022-09-06T20:56:54.778Z,97695.00
2022-09-06T21:00:56.422Z,97703.00
2022-09-06T21:04:59.410Z,97702.00
2022-09-06T21:09:02.304Z,97698.00
2022-09-06T21:13:03.532Z,97710.00
2022-09-06T21:17:04.571Z,97707.00
2022-09-06T21:21:07.588Z,97718.00
2022-09-06T21:25:09.235Z,97703.00
2022-09-06T21:29:11.021Z,97710.00
2022-09-06T21:33:12.153Z,97714.00
2022-09-06T21:37:13.844Z,97705.00
2022-09-06T21:41:17.674Z,97704.00
2022-09-06T21:45:18.933Z,97710.00
2022-09-06T21:49:20.062Z,97709.00
2022-09-06T21:53:22.943Z,97706.00
2022-09-06T21:57:24.145Z,97706.00
2022-09-06T22:01:27.917Z,97703.00
2022-09-06T22:05:29.118Z,97696.00
2022-09-06T22:09:30.264Z,97685.00
2022-09-06T22:13:31.359Z,97687.00
2022-09-06T22:17:32.443Z,97691.00
2022-09-06T22:21:34.079Z,97689.00
2022-09-06T22:25:35.102Z,97696.00
2022-09-06T22:29:36.249Z,97687.00
2022-09-06T22:33:37.872Z,97676.00
2022-09-06T22:37:38.930Z,97669.00
2022-09-06T22:41:40.046Z,97665.00
2022-09-06T22:45:43.022Z,97664.00
2022-09-06T22:49:44.017Z,97666.00
2022-09-06T22:53:45.125Z,97652.00
2022-09-06T22:57:46.354Z,97647.00
2022-09-06T23:01:47.404Z,97648.00
2022-09-06T23:05:48.954Z,97645.00
2022-09-06T23:09:50.169Z,97643.00
2022-09-06T23:13:57.139Z,97640.00
2022-09-06T23:17:58.090Z,97650.00
2022-09-06T23:21:59.119Z,97661.00
2022-09-06T23:26:10.085Z,97666.00
2022-09-06T23:30:11.511Z,97674.00
2022-09-06T23:34:12.759Z,97669.00
2022-09-06T23:38:13.807Z,97667.00
2022-09-06T23:42:14.873Z,97681.00
2022-09-06T23:46:16.408Z,97685.00
2022-09-06T23:50:17.459Z,97675.00
2022-09-06T23:54:19.004Z,97679.00
2022-09-06T23:58:20.229Z,97682.00
